Time;durP1;ratioP1;P1;durP2;ratioP2;P2;SDS_P1;SDS_P2;PMS_P1;PMS_P2;Temp;Humidity;BMP_temperature;BMP_pressure;BME280_temperature;BME280_humidity;BME280_pressure;Samples;Min_cycle;Max_cycle;Signal;HPM_P1;HPM_P2
2020/12/29 00:01:50;;;;;;;;;;;18.00;99.90;;;;;;5128402;27;20317;-79
2020/12/29 00:04:25;;;;;;;;;;;18.00;99.90;;;;;;5134544;27;19911;-81
2020/12/29 00:06:56;;;;;;;;;;;18.00;99.90;;;;;;5115904;28;19915;-79
2020/12/29 00:09:26;;;;;;;;;;;18.10;99.90;;;;;;5115626;28;20347;-82
2020/12/29 00:11:54;;;;;;;;;;;18.10;99.90;;;;;;5116460;28;19934;-81
2020/12/29 00:14:24;;;;;;;;;;;18.10;99.90;;;;;;5116173;28;19912;-81
2020/12/29 00:16:51;;;;;;;;;;;18.10;99.90;;;;;;5115916;28;19912;-77
2020/12/29 00:19:22;;;;;;;;;;;18.10;99.90;;;;;;5116295;28;19909;-86
2020/12/29 00:21:49;;;;;;;;;;;18.20;99.90;;;;;;5125579;28;19932;-79
2020/12/29 00:24:16;;;;;;;;;;;18.20;99.90;;;;;;5124025;28;19984;-82
2020/12/29 00:26:44;;;;;;;;;;;18.30;99.90;;;;;;5115965;28;20320;-79
2020/12/29 00:29:13;;;;;;;;;;;18.30;99.90;;;;;;5115676;28;19912;-81
2020/12/29 00:31:41;;;;;;;;;;;18.30;99.90;;;;;;5115582;28;19908;-82
2020/12/29 00:34:08;;;;;;;;;;;18.40;99.90;;;;;;5115764;28;19953;-84
2020/12/29 00:36:34;;;;;;;;;;;18.40;99.90;;;;;;5116694;28;19918;-85
2020/12/29 00:39:01;;;;;;;;;;;18.40;99.90;;;;;;5115645;28;19976;-80
2020/12/29 00:41:29;;;;;;;;;;;18.40;99.90;;;;;;5115373;28;19934;-84
2020/12/29 00:43:56;;;;;;;;;;;18.40;99.90;;;;;;5117106;28;20358;-85
2020/12/29 00:46:22;;;;;;;;;;;18.40;99.90;;;;;;5116716;28;19958;-86
2020/12/29 00:48:50;;;;;;;;;;;18.50;99.90;;;;;;5116604;28;19908;-86
2020/12/29 00:51:18;;;;;;;;;;;18.50;99.90;;;;;;5115615;28;19908;-86
2020/12/29 00:53:45;;;;;;;;;;;18.60;99.90;;;;;;5115947;28;19915;-89
2020/12/29 00:56:12;;;;;;;;;;;18.60;99.90;;;;;;5117005;28;19907;-83
2020/12/29 00:58:39;;;;;;;;;;;18.60;99.90;;;;;;5115009;28;19979;-85
2020/12/29 01:01:06;;;;;;;;;;;18.60;99.90;;;;;;5115391;28;19914;-85
2020/12/29 01:03:33;;;;;;;;;;;18.50;99.90;;;;;;5115409;28;19920;-86
2020/12/29 01:06:00;;;;;;;;;;;18.40;99.90;;;;;;5114661;28;19920;-85
2020/12/29 01:08:28;;;;;;;;;;;18.40;99.90;;;;;;5115503;28;19915;-84
2020/12/29 01:10:56;;;;;;;;;;;18.40;99.90;;;;;;5108114;27;19911;-81
2020/12/29 01:13:22;;;;;;;;;;;18.50;99.90;;;;;;5113384;27;19954;-83
2020/12/29 01:15:50;;;;;;;;;;;18.50;99.90;;;;;;5119785;27;19908;-83
2020/12/29 01:18:20;;;;;;;;;;;18.60;99.90;;;;;;5115075;28;19908;-81
2020/12/29 01:20:48;;;;;;;;;;;18.60;99.90;;;;;;5115113;28;19960;-84
2020/12/29 01:23:15;;;;;;;;;;;18.70;99.90;;;;;;5114125;28;20320;-84
2020/12/29 01:25:42;;;;;;;;;;;18.70;99.90;;;;;;5114669;28;19908;-89
2020/12/29 01:28:10;;;;;;;;;;;18.80;99.90;;;;;;5115585;28;19967;-84
2020/12/29 01:30:37;;;;;;;;;;;18.80;99.90;;;;;;5115780;28;19926;-87
2020/12/29 01:33:04;;;;;;;;;;;18.80;99.90;;;;;;5115986;28;19908;-84
2020/12/29 01:35:31;;;;;;;;;;;18.80;99.90;;;;;;5113842;28;20378;-86
2020/12/29 01:37:58;;;;;;;;;;;18.80;99.90;;;;;;5115432;28;19912;-86
2020/12/29 01:40:25;;;;;;;;;;;18.90;99.90;;;;;;5114489;28;19908;-86
2020/12/29 01:42:51;;;;;;;;;;;19.00;99.90;;;;;;5115814;27;19916;-85
2020/12/29 01:45:18;;;;;;;;;;;19.10;99.90;;;;;;5113699;28;19979;-90
2020/12/29 01:47:47;;;;;;;;;;;19.30;99.90;;;;;;5099884;27;19918;-83
2020/12/29 01:50:15;;;;;;;;;;;19.30;99.90;;;;;;5134076;27;20002;-81
2020/12/29 01:52:42;;;;;;;;;;;19.30;99.90;;;;;;5132357;27;20265;-84
2020/12/29 01:55:10;;;;;;;;;;;19.30;99.90;;;;;;5134510;27;19916;-82
2020/12/29 01:57:37;;;;;;;;;;;19.30;99.90;;;;;;5129956;27;19911;-83
2020/12/29 02:00:10;;;;;;;;;;;19.20;99.90;;;;;;5133561;27;20335;-83
2020/12/29 02:02:37;;;;;;;;;;;19.20;99.90;;;;;;5133623;27;19927;-81
2020/12/29 02:05:07;;;;;;;;;;;19.20;99.90;;;;;;5125058;27;19920;-84
2020/12/29 02:07:34;;;;;;;;;;;19.10;99.90;;;;;;5113466;28;19926;-82
2020/12/29 02:10:01;;;;;;;;;;;19.20;99.90;;;;;;5112059;28;20275;-80
2020/12/29 02:12:29;;;;;;;;;;;19.20;99.90;;;;;;5112879;28;19911;-83
2020/12/29 02:14:56;;;;;;;;;;;19.20;99.90;;;;;;5109778;28;20329;-83
2020/12/29 02:17:23;;;;;;;;;;;19.20;99.90;;;;;;5106408;28;19908;-84
2020/12/29 02:19:49;;;;;;;;;;;19.20;99.90;;;;;;5109338;28;19912;-82
2020/12/29 02:22:26;;;;;;;;;;;19.20;99.90;;;;;;5112641;28;20038;-81
2020/12/29 02:24:53;;;;;;;;;;;19.10;99.90;;;;;;5114254;28;20254;-85
2020/12/29 02:27:20;;;;;;;;;;;19.10;99.90;;;;;;5107001;28;19935;-81
2020/12/29 02:29:48;;;;;;;;;;;19.10;99.90;;;;;;5105254;28;19919;-79
2020/12/29 02:32:17;;;;;;;;;;;19.10;99.90;;;;;;5109733;28;19998;-82
2020/12/29 02:34:47;;;;;;;;;;;19.00;99.90;;;;;;5111982;28;19950;-85
2020/12/29 02:37:17;;;;;;;;;;;19.10;99.90;;;;;;5114586;28;20372;-85
2020/12/29 02:39:56;;;;;;;;;;;19.10;99.90;;;;;;5100580;28;19919;-83
2020/12/29 02:42:23;;;;;;;;;;;19.10;99.90;;;;;;5114272;28;19928;-83
2020/12/29 02:44:49;;;;;;;;;;;19.10;99.90;;;;;;5112516;28;19907;-82
2020/12/29 02:47:16;;;;;;;;;;;19.10;99.90;;;;;;5113265;28;19912;-79
2020/12/29 02:49:43;;;;;;;;;;;19.10;99.90;;;;;;5112804;28;20045;-81
2020/12/29 02:52:09;;;;;;;;;;;19.10;99.90;;;;;;5107698;28;20001;-79
2020/12/29 02:54:36;;;;;;;;;;;19.10;99.90;;;;;;5110244;28;19912;-82
2020/12/29 02:57:03;;;;;;;;;;;19.10;99.90;;;;;;5112384;28;20388;-81
2020/12/29 02:59:30;;;;;;;;;;;19.00;99.90;;;;;;5113189;28;19951;-79
2020/12/29 03:01:58;;;;;;;;;;;19.10;99.90;;;;;;5118393;28;19972;-81
2020/12/29 03:04:24;;;;;;;;;;;19.10;99.90;;;;;;5119759;27;19908;-79
2020/12/29 03:06:52;;;;;;;;;;;19.00;99.90;;;;;;5143372;27;19911;-80
2020/12/29 03:09:19;;;;;;;;;;;19.10;99.90;;;;;;5146910;27;19961;-82
2020/12/29 03:11:46;;;;;;;;;;;19.10;99.70;;;;;;5140151;27;19950;-82
2020/12/29 03:14:24;;;;;;;;;;;19.00;99.70;;;;;;5138852;27;20468;-81
2020/12/29 03:16:50;;;;;;;;;;;19.10;99.80;;;;;;5139301;27;19908;-83
2020/12/29 03:19:17;;;;;;;;;;;19.10;99.90;;;;;;5139642;27;19957;-82
2020/12/29 03:21:44;;;;;;;;;;;19.10;99.90;;;;;;5154226;27;20288;-78
2020/12/29 03:24:12;;;;;;;;;;;19.10;99.90;;;;;;5158456;27;19952;-80
2020/12/29 03:26:47;;;;;;;;;;;19.20;99.90;;;;;;5152952;27;20011;-86
2020/12/29 03:29:14;;;;;;;;;;;19.30;99.90;;;;;;5117510;28;19912;-83
2020/12/29 03:31:45;;;;;;;;;;;19.40;99.70;;;;;;5129606;27;19986;-88
2020/12/29 03:34:26;;;;;;;;;;;19.30;99.40;;;;;;5143616;27;20007;-79
2020/12/29 03:36:53;;;;;;;;;;;19.40;99.50;;;;;;5124914;27;19942;-85
2020/12/29 03:39:20;;;;;;;;;;;19.40;99.30;;;;;;5137995;27;19915;-88
2020/12/29 03:41:47;;;;;;;;;;;19.30;99.50;;;;;;5133731;27;20003;-81
2020/12/29 03:44:13;;;;;;;;;;;19.40;99.70;;;;;;5155632;27;19925;-90
2020/12/29 03:46:40;;;;;;;;;;;19.30;99.60;;;;;;5159486;27;19907;-78
2020/12/29 03:49:07;;;;;;;;;;;19.40;99.20;;;;;;5158464;27;19911;-87
2020/12/29 03:51:33;;;;;;;;;;;19.50;99.60;;;;;;5158348;27;19914;-83
2020/12/29 03:54:00;;;;;;;;;;;19.50;98.70;;;;;;5145395;27;20350;-85
2020/12/29 03:56:26;;;;;;;;;;;19.50;99.00;;;;;;5139151;27;19912;-84
2020/12/29 03:58:59;;;;;;;;;;;19.60;99.20;;;;;;5138251;27;19912;-82
2020/12/29 04:01:25;;;;;;;;;;;19.70;98.90;;;;;;5143280;27;19914;-84
2020/12/29 04:03:52;;;;;;;;;;;19.70;98.80;;;;;;5142626;27;19916;-84
2020/12/29 04:06:19;;;;;;;;;;;19.70;98.70;;;;;;5118615;27;19951;-78
2020/12/29 04:08:45;;;;;;;;;;;19.80;98.30;;;;;;5114763;28;20372;-85
2020/12/29 04:11:12;;;;;;;;;;;19.70;98.40;;;;;;5115144;28;19955;-79
2020/12/29 04:13:39;;;;;;;;;;;19.80;98.80;;;;;;5115957;28;19908;-82
2020/12/29 04:16:06;;;;;;;;;;;19.90;98.30;;;;;;5115302;28;19908;-84
2020/12/29 04:18:33;;;;;;;;;;;19.90;98.20;;;;;;5112948;28;19916;-79
2020/12/29 04:21:00;;;;;;;;;;;19.90;98.30;;;;;;5113041;28;20014;-82
2020/12/29 04:23:26;;;;;;;;;;;19.90;98.30;;;;;;5114678;28;19916;-79
2020/12/29 04:25:59;;;;;;;;;;;19.90;98.00;;;;;;5114769;28;19912;-85
2020/12/29 04:28:27;;;;;;;;;;;19.80;98.40;;;;;;5094106;28;19908;-83
2020/12/29 04:30:54;;;;;;;;;;;19.80;98.50;;;;;;5094244;28;20350;-85
2020/12/29 04:33:20;;;;;;;;;;;19.80;98.60;;;;;;5103585;28;19912;-82
2020/12/29 04:35:47;;;;;;;;;;;19.80;98.90;;;;;;5114354;28;20350;-80
2020/12/29 04:38:13;;;;;;;;;;;19.80;98.70;;;;;;5114526;28;19922;-80
2020/12/29 04:40:40;;;;;;;;;;;19.70;98.60;;;;;;5114220;28;20039;-81
2020/12/29 04:43:07;;;;;;;;;;;19.60;98.60;;;;;;5112991;28;19985;-81
2020/12/29 04:45:34;;;;;;;;;;;19.50;98.80;;;;;;5114031;28;19916;-80
2020/12/29 04:48:00;;;;;;;;;;;19.50;99.10;;;;;;5113385;28;19911;-79
2020/12/29 04:50:30;;;;;;;;;;;19.40;99.70;;;;;;5112366;28;19914;-79
2020/12/29 04:52:57;;;;;;;;;;;19.40;99.40;;;;;;5113580;28;19936;-79
2020/12/29 04:55:28;;;;;;;;;;;19.30;99.40;;;;;;5113617;28;19914;-79
2020/12/29 04:57:57;;;;;;;;;;;19.20;99.90;;;;;;5113147;28;19939;-80
2020/12/29 05:00:25;;;;;;;;;;;19.10;99.90;;;;;;5112961;28;19919;-79
2020/12/29 05:02:52;;;;;;;;;;;18.90;99.90;;;;;;5114550;28;19962;-78
2020/12/29 05:05:20;;;;;;;;;;;18.70;99.90;;;;;;4865792;28;7032658;-80
2020/12/29 05:07:47;;;;;;;;;;;18.70;99.90;;;;;;5115249;28;20430;-78
2020/12/29 05:10:14;;;;;;;;;;;18.50;99.90;;;;;;5116012;28;20002;-79
2020/12/29 05:12:50;;;;;;;;;;;18.50;99.90;;;;;;5115178;28;19912;-79
2020/12/29 05:15:22;;;;;;;;;;;18.60;99.90;;;;;;5102861;28;20363;-79
2020/12/29 05:17:49;;;;;;;;;;;18.60;99.90;;;;;;5095329;28;19908;-79
2020/12/29 05:20:19;;;;;;;;;;;18.60;99.90;;;;;;5103931;28;19912;-79
2020/12/29 05:22:46;;;;;;;;;;;18.70;99.90;;;;;;5113787;28;20297;-78
2020/12/29 05:25:16;;;;;;;;;;;18.70;99.90;;;;;;5106962;28;20016;-80
2020/12/29 05:27:43;;;;;;;;;;;18.80;99.90;;;;;;5112119;28;19920;-78
2020/12/29 05:30:10;;;;;;;;;;;18.90;99.90;;;;;;5095061;28;20002;-81
2020/12/29 05:32:40;;;;;;;;;;;18.90;99.90;;;;;;5095115;28;19954;-79
2020/12/29 05:35:13;;;;;;;;;;;19.00;99.90;;;;;;5096988;28;20278;-80
2020/12/29 05:37:40;;;;;;;;;;;19.00;99.90;;;;;;5094892;28;19994;-77
2020/12/29 05:40:25;;;;;;;;;;;19.00;99.90;;;;;;5094660;28;20003;-79
2020/12/29 05:42:55;;;;;;;;;;;19.10;99.90;;;;;;5107261;28;19916;-81
2020/12/29 05:45:26;;;;;;;;;;;19.20;99.90;;;;;;5116095;28;19911;-80
2020/12/29 05:47:57;;;;;;;;;;;19.20;99.20;;;;;;5116510;28;19954;-79
2020/12/29 05:50:27;;;;;;;;;;;19.20;99.00;;;;;;5115541;28;20002;-79
2020/12/29 05:53:02;;;;;;;;;;;19.20;99.30;;;;;;5127471;28;19937;-78
2020/12/29 05:55:31;;;;;;;;;;;19.20;99.00;;;;;;5128197;28;19908;-78
2020/12/29 05:58:01;;;;;;;;;;;19.10;99.00;;;;;;5128017;28;19912;-80
2020/12/29 06:00:28;;;;;;;;;;;19.10;99.00;;;;;;5127794;28;19915;-80
2020/12/29 06:02:56;;;;;;;;;;;19.10;99.10;;;;;;5126681;28;19916;-80
2020/12/29 06:05:23;;;;;;;;;;;19.10;99.10;;;;;;5127177;28;19971;-79
2020/12/29 06:07:54;;;;;;;;;;;19.00;99.10;;;;;;5121814;28;20273;-80
2020/12/29 06:10:21;;;;;;;;;;;19.20;99.10;;;;;;5114442;28;19915;-81
2020/12/29 06:12:52;;;;;;;;;;;19.30;98.90;;;;;;5113079;28;20354;-80
2020/12/29 06:15:29;;;;;;;;;;;19.30;98.90;;;;;;5114428;28;20391;-81
2020/12/29 06:18:02;;;;;;;;;;;19.30;98.80;;;;;;5114594;28;19956;-80
2020/12/29 06:20:46;;;;;;;;;;;19.30;98.70;;;;;;5113472;28;20259;-80
2020/12/29 06:23:17;;;;;;;;;;;19.30;98.90;;;;;;5113279;28;19962;-81
2020/12/29 06:25:45;;;;;;;;;;;19.30;99.00;;;;;;5113783;28;20301;-80
2020/12/29 06:28:14;;;;;;;;;;;19.30;99.10;;;;;;5113637;28;19914;-80
2020/12/29 06:30:41;;;;;;;;;;;19.30;98.60;;;;;;5113080;28;19914;-80
2020/12/29 06:33:08;;;;;;;;;;;19.20;98.80;;;;;;5113234;28;19908;-80
2020/12/29 06:35:34;;;;;;;;;;;19.20;99.10;;;;;;5113038;28;20022;-81
2020/12/29 06:38:05;;;;;;;;;;;19.10;99.30;;;;;;5112340;28;19912;-81
2020/12/29 06:40:32;;;;;;;;;;;19.10;99.60;;;;;;5113273;28;19951;-81
2020/12/29 06:42:59;;;;;;;;;;;19.00;99.90;;;;;;5112898;28;19922;-81
2020/12/29 06:45:32;;;;;;;;;;;18.80;99.90;;;;;;5112170;28;20396;-84
2020/12/29 06:47:58;;;;;;;;;;;18.70;99.90;;;;;;5112177;28;20403;-84
2020/12/29 06:50:29;;;;;;;;;;;18.70;99.90;;;;;;5112625;28;20004;-82
2020/12/29 06:53:03;;;;;;;;;;;18.60;99.90;;;;;;5105819;28;19948;-80
2020/12/29 06:55:30;;;;;;;;;;;18.60;99.90;;;;;;5093416;28;20320;-82
2020/12/29 06:57:57;;;;;;;;;;;18.50;99.90;;;;;;5092974;28;19908;-83
2020/12/29 07:00:25;;;;;;;;;;;18.50;99.90;;;;;;5092931;28;19912;-79
2020/12/29 07:02:53;;;;;;;;;;;18.60;99.90;;;;;;5091595;28;19916;-79
2020/12/29 07:05:21;;;;;;;;;;;18.60;99.90;;;;;;5101423;28;20438;-79
2020/12/29 07:07:51;;;;;;;;;;;18.60;99.90;;;;;;5094961;28;19915;-83
2020/12/29 07:10:18;;;;;;;;;;;18.60;99.90;;;;;;5112567;28;19907;-81
2020/12/29 07:12:48;;;;;;;;;;;18.60;99.90;;;;;;5112640;28;20342;-84
2020/12/29 07:15:16;;;;;;;;;;;18.60;99.90;;;;;;5112653;28;20467;-82
2020/12/29 07:18:01;;;;;;;;;;;18.60;99.90;;;;;;5094947;28;19907;-80
2020/12/29 07:20:37;;;;;;;;;;;18.70;99.90;;;;;;5114483;28;19908;-79
2020/12/29 07:23:05;;;;;;;;;;;18.70;99.90;;;;;;5112881;28;20325;-78
2020/12/29 07:25:33;;;;;;;;;;;18.70;99.90;;;;;;5112788;28;19908;-80
2020/12/29 07:28:06;;;;;;;;;;;18.70;99.90;;;;;;5112313;28;19947;-79
2020/12/29 07:30:33;;;;;;;;;;;18.70;99.90;;;;;;5112791;28;19947;-78
2020/12/29 07:33:04;;;;;;;;;;;18.80;99.90;;;;;;5113183;28;19933;-82
2020/12/29 07:35:33;;;;;;;;;;;18.70;99.90;;;;;;5112299;28;19919;-82
2020/12/29 07:38:04;;;;;;;;;;;18.70;99.90;;;;;;5111034;28;19998;-82
2020/12/29 07:40:31;;;;;;;;;;;18.70;99.90;;;;;;5111090;28;19915;-80
2020/12/29 07:42:57;;;;;;;;;;;18.60;99.90;;;;;;5110848;28;20004;-85
2020/12/29 07:45:24;;;;;;;;;;;18.60;99.90;;;;;;5110987;28;20535;-82
2020/12/29 07:47:51;;;;;;;;;;;18.60;99.90;;;;;;5115138;28;19908;-85
2020/12/29 07:50:18;;;;;;;;;;;18.60;99.90;;;;;;5114992;28;19908;-80
2020/12/29 07:52:44;;;;;;;;;;;18.60;99.90;;;;;;5116241;28;19907;-81
2020/12/29 07:55:12;;;;;;;;;;;18.60;99.90;;;;;;5132200;27;19927;-82
2020/12/29 07:57:43;;;;;;;;;;;18.60;99.90;;;;;;5136111;27;20044;-84
2020/12/29 08:00:11;;;;;;;;;;;18.60;99.90;;;;;;5119046;27;20325;-81
2020/12/29 08:02:38;;;;;;;;;;;18.70;99.90;;;;;;5137096;27;20426;-85
2020/12/29 08:05:06;;;;;;;;;;;18.70;99.90;;;;;;5143838;27;20265;-81
2020/12/29 08:07:33;;;;;;;;;;;18.60;99.90;;;;;;5157728;27;19964;-81
2020/12/29 08:09:59;;;;;;;;;;;18.70;99.90;;;;;;5150903;27;20000;-81
2020/12/29 08:12:26;;;;;;;;;;;18.60;99.90;;;;;;5139351;27;19957;-80
2020/12/29 08:14:53;;;;;;;;;;;18.60;99.90;;;;;;5144287;27;19907;-80
2020/12/29 08:17:19;;;;;;;;;;;18.60;99.90;;;;;;5137570;27;19912;-80
2020/12/29 08:19:56;;;;;;;;;;;18.50;99.90;;;;;;5145354;27;19911;-79
2020/12/29 08:22:25;;;;;;;;;;;18.50;99.90;;;;;;5146962;27;19980;-82
2020/12/29 08:24:53;;;;;;;;;;;18.60;99.90;;;;;;5145243;27;20012;-82
2020/12/29 08:27:19;;;;;;;;;;;18.60;99.90;;;;;;5117649;27;20370;-82
2020/12/29 08:29:46;;;;;;;;;;;18.50;99.90;;;;;;5134419;27;19914;-86
2020/12/29 08:32:16;;;;;;;;;;;18.40;99.90;;;;;;5110568;27;19912;-84
2020/12/29 08:34:45;;;;;;;;;;;18.40;99.90;;;;;;5128665;27;19954;-83
2020/12/29 08:37:13;;;;;;;;;;;18.40;99.90;;;;;;5127906;27;19916;-81
2020/12/29 08:39:40;;;;;;;;;;;18.30;99.90;;;;;;5136344;27;19914;-81
2020/12/29 08:42:11;;;;;;;;;;;18.20;99.90;;;;;;5150617;27;19915;-86
2020/12/29 08:44:42;;;;;;;;;;;18.20;99.90;;;;;;5123565;27;20006;-81
2020/12/29 08:47:10;;;;;;;;;;;18.20;99.90;;;;;;5148899;27;19954;-82
2020/12/29 08:49:36;;;;;;;;;;;18.10;99.90;;;;;;5156747;27;19914;-82
2020/12/29 08:52:04;;;;;;;;;;;18.10;99.90;;;;;;5152574;27;19957;-81
2020/12/29 08:54:38;;;;;;;;;;;18.00;99.90;;;;;;5139055;27;19911;-83
2020/12/29 08:57:06;;;;;;;;;;;18.00;99.90;;;;;;5114769;28;19915;-81
2020/12/29 08:59:51;;;;;;;;;;;18.00;99.90;;;;;;5129296;27;19914;-80
2020/12/29 09:02:27;;;;;;;;;;;18.00;99.90;;;;;;5135520;27;19966;-83
2020/12/29 09:05:31;;;;;;;;;;;17.90;99.90;;;;;;5132026;27;20324;-81
2020/12/29 09:07:58;;;;;;;;;;;17.90;99.90;;;;;;5103166;27;19943;-80
2020/12/29 09:10:25;;;;;;;;;;;17.90;99.90;;;;;;5134902;27;19988;-80
2020/12/29 09:12:51;;;;;;;;;;;17.90;99.90;;;;;;5134115;27;20002;-81
2020/12/29 09:15:27;;;;;;;;;;;17.90;99.90;;;;;;5134620;27;19908;-79
2020/12/29 09:17:57;;;;;;;;;;;17.90;99.90;;;;;;5133909;27;19922;-80
2020/12/29 09:20:30;;;;;;;;;;;17.90;99.90;;;;;;5135501;27;20047;-84
2020/12/29 09:23:09;;;;;;;;;;;17.90;99.90;;;;;;5135213;27;19915;-79
2020/12/29 09:25:37;;;;;;;;;;;17.90;99.90;;;;;;5118822;27;19919;-79
2020/12/29 09:28:20;;;;;;;;;;;17.90;99.90;;;;;;5115698;27;19916;-79
2020/12/29 09:30:58;;;;;;;;;;;17.90;99.90;;;;;;5118935;27;20362;-80
2020/12/29 09:33:26;;;;;;;;;;;18.00;99.90;;;;;;5121883;27;19914;-79
2020/12/29 09:36:07;;;;;;;;;;;18.00;99.90;;;;;;5135183;27;19911;-79
2020/12/29 09:38:34;;;;;;;;;;;18.00;99.90;;;;;;5134865;27;19918;-81
2020/12/29 09:41:05;;;;;;;;;;;18.00;99.90;;;;;;5134717;27;19964;-80
2020/12/29 09:43:32;;;;;;;;;;;18.00;99.90;;;;;;5130699;27;20281;-81
2020/12/29 09:45:58;;;;;;;;;;;18.00;99.90;;;;;;5133457;27;19929;-79
2020/12/29 09:48:26;;;;;;;;;;;18.00;99.90;;;;;;5129865;27;19963;-79
2020/12/29 09:50:56;;;;;;;;;;;18.00;99.90;;;;;;5097471;28;19914;-79
2020/12/29 09:53:22;;;;;;;;;;;18.00;99.90;;;;;;5128938;27;19921;-80
2020/12/29 09:55:49;;;;;;;;;;;18.10;99.90;;;;;;5135481;27;19911;-81
2020/12/29 09:58:16;;;;;;;;;;;18.00;99.90;;;;;;5136138;27;20408;-79
2020/12/29 10:00:43;;;;;;;;;;;18.00;99.90;;;;;;5130753;27;20322;-79
2020/12/29 10:03:09;;;;;;;;;;;18.10;99.90;;;;;;5130818;27;19919;-79
2020/12/29 10:05:36;;;;;;;;;;;18.10;99.90;;;;;;5132537;27;19926;-79
2020/12/29 10:08:03;;;;;;;;;;;18.10;99.90;;;;;;5134854;27;19989;-79
2020/12/29 10:10:29;;;;;;;;;;;18.20;99.90;;;;;;5134271;27;19956;-79
2020/12/29 10:12:56;;;;;;;;;;;18.20;99.90;;;;;;5105651;27;19912;-80
2020/12/29 10:15:29;;;;;;;;;;;18.20;99.90;;;;;;5093049;28;19908;-79
2020/12/29 10:17:55;;;;;;;;;;;18.20;99.90;;;;;;5093724;28;19915;-81
2020/12/29 10:20:22;;;;;;;;;;;18.20;99.90;;;;;;5093525;28;19908;-79
2020/12/29 10:22:49;;;;;;;;;;;18.20;99.90;;;;;;5097571;28;19962;-80
2020/12/29 10:25:15;;;;;;;;;;;18.30;99.90;;;;;;5113817;28;19946;-81
2020/12/29 10:27:43;;;;;;;;;;;18.30;99.90;;;;;;5100813;28;19912;-81
2020/12/29 10:30:10;;;;;;;;;;;18.30;99.90;;;;;;5110256;28;20273;-80
2020/12/29 10:32:40;;;;;;;;;;;18.30;99.90;;;;;;5100600;28;19919;-80
2020/12/29 10:35:07;;;;;;;;;;;18.30;99.90;;;;;;5093239;28;19982;-83
2020/12/29 10:37:34;;;;;;;;;;;18.40;99.90;;;;;;5109043;28;19975;-83
2020/12/29 10:40:05;;;;;;;;;;;18.40;99.90;;;;;;5097140;28;20066;-84
2020/12/29 10:42:34;;;;;;;;;;;18.40;99.90;;;;;;5095982;28;19916;-82
2020/12/29 10:45:04;;;;;;;;;;;18.40;99.90;;;;;;5096158;28;19953;-83
2020/12/29 10:47:30;;;;;;;;;;;18.30;99.90;;;;;;5094875;28;19965;-79
2020/12/29 10:49:57;;;;;;;;;;;18.30;99.90;;;;;;5113320;28;19908;-78
2020/12/29 10:52:24;;;;;;;;;;;18.30;99.90;;;;;;5112719;28;19919;-79
2020/12/29 10:54:50;;;;;;;;;;;18.20;99.90;;;;;;5095016;28;19912;-78
2020/12/29 10:57:18;;;;;;;;;;;18.20;99.90;;;;;;5112028;28;19920;-79
2020/12/29 10:59:54;;;;;;;;;;;18.20;99.90;;;;;;5113519;28;19912;-78
2020/12/29 11:02:21;;;;;;;;;;;18.20;99.90;;;;;;5112843;28;20358;-77
2020/12/29 11:04:48;;;;;;;;;;;18.20;99.90;;;;;;5116694;28;20263;-79
2020/12/29 11:07:14;;;;;;;;;;;18.20;99.90;;;;;;5121818;28;20248;-80
2020/12/29 11:09:41;;;;;;;;;;;18.20;99.90;;;;;;5113335;28;19911;-79
2020/12/29 11:12:07;;;;;;;;;;;18.20;99.90;;;;;;5120648;28;19968;-81
2020/12/29 11:14:34;;;;;;;;;;;18.20;99.90;;;;;;5113425;28;19916;-78
2020/12/29 11:17:01;;;;;;;;;;;18.20;99.90;;;;;;5117689;28;19947;-80
2020/12/29 11:19:27;;;;;;;;;;;18.20;99.90;;;;;;5113280;28;19966;-82
2020/12/29 11:21:54;;;;;;;;;;;18.20;99.90;;;;;;5116029;28;19959;-80
2020/12/29 11:24:21;;;;;;;;;;;18.30;99.90;;;;;;5117451;28;19907;-78
2020/12/29 11:26:47;;;;;;;;;;;18.30;99.90;;;;;;5122807;27;20350;-78
2020/12/29 11:29:14;;;;;;;;;;;18.30;99.90;;;;;;5117118;28;19922;-80
2020/12/29 11:31:41;;;;;;;;;;;18.40;99.90;;;;;;5123290;27;20007;-81
2020/12/29 11:34:07;;;;;;;;;;;18.50;99.90;;;;;;5123593;27;20002;-79
2020/12/29 11:36:34;;;;;;;;;;;18.60;99.90;;;;;;5131277;27;20398;-81
2020/12/29 11:39:00;;;;;;;;;;;18.60;99.90;;;;;;5131754;27;19918;-83
2020/12/29 11:41:27;;;;;;;;;;;18.60;99.90;;;;;;5116518;28;19933;-79
2020/12/29 11:43:54;;;;;;;;;;;18.70;99.90;;;;;;5117793;27;19916;-81
2020/12/29 11:46:20;;;;;;;;;;;18.70;99.90;;;;;;5124791;27;19923;-78
2020/12/29 11:48:47;;;;;;;;;;;18.70;99.90;;;;;;5117971;27;19912;-80
2020/12/29 11:51:14;;;;;;;;;;;18.70;99.90;;;;;;5116608;28;20008;-79
2020/12/29 11:53:41;;;;;;;;;;;18.70;99.90;;;;;;5117884;27;19915;-79
2020/12/29 11:56:11;;;;;;;;;;;18.70;99.90;;;;;;5108000;27;19949;-79
2020/12/29 11:58:38;;;;;;;;;;;18.70;99.90;;;;;;5137207;27;19915;-79
2020/12/29 12:01:05;;;;;;;;;;;18.70;99.90;;;;;;5133094;27;20218;-78
2020/12/29 12:03:31;;;;;;;;;;;18.70;99.90;;;;;;5136372;27;20017;-79
2020/12/29 12:05:58;;;;;;;;;;;18.70;99.90;;;;;;5141724;27;19919;-80
2020/12/29 12:08:25;;;;;;;;;;;18.70;99.90;;;;;;5137042;27;20287;-79
2020/12/29 12:10:51;;;;;;;;;;;18.60;99.90;;;;;;5137050;27;20370;-80
2020/12/29 12:13:18;;;;;;;;;;;18.60;99.90;;;;;;5122136;27;20358;-79
2020/12/29 12:15:44;;;;;;;;;;;18.60;99.90;;;;;;5122847;27;20373;-80
2020/12/29 12:18:11;;;;;;;;;;;18.60;99.90;;;;;;5135025;27;19914;-81
2020/12/29 12:20:38;;;;;;;;;;;18.70;99.90;;;;;;5124095;27;19917;-80
2020/12/29 12:23:04;;;;;;;;;;;18.70;99.90;;;;;;5146236;27;20386;-79
2020/12/29 12:25:31;;;;;;;;;;;18.70;99.90;;;;;;5130177;27;19915;-79
2020/12/29 12:27:57;;;;;;;;;;;18.70;99.90;;;;;;5135863;27;19907;-77
2020/12/29 12:30:24;;;;;;;;;;;18.60;99.90;;;;;;5133625;27;19922;-78
2020/12/29 12:32:51;;;;;;;;;;;18.50;99.90;;;;;;5144558;27;19919;-78
2020/12/29 12:35:17;;;;;;;;;;;18.50;99.90;;;;;;5129469;27;19939;-81
2020/12/29 12:37:44;;;;;;;;;;;18.50;99.90;;;;;;5119025;27;19962;-78
2020/12/29 12:40:11;;;;;;;;;;;18.50;99.90;;;;;;5136507;27;19908;-79
2020/12/29 12:42:37;;;;;;;;;;;18.50;99.90;;;;;;5120661;27;19924;-79
2020/12/29 12:45:04;;;;;;;;;;;18.40;99.90;;;;;;5122342;27;20392;-81
2020/12/29 12:47:31;;;;;;;;;;;18.40;99.90;;;;;;5115537;28;20282;-78
2020/12/29 12:49:57;;;;;;;;;;;18.40;99.90;;;;;;5126488;27;19912;-78
2020/12/29 12:52:24;;;;;;;;;;;18.40;99.90;;;;;;5134647;27;19922;-79
2020/12/29 12:54:51;;;;;;;;;;;18.30;99.90;;;;;;5139202;27;19911;-79
2020/12/29 12:57:17;;;;;;;;;;;18.30;99.90;;;;;;5130882;27;20440;-79
2020/12/29 12:59:44;;;;;;;;;;;18.20;99.90;;;;;;5117776;27;19922;-78
2020/12/29 13:02:10;;;;;;;;;;;18.10;99.90;;;;;;5128434;27;19919;-79
2020/12/29 13:04:38;;;;;;;;;;;18.10;99.90;;;;;;5131226;27;19916;-79
2020/12/29 13:07:04;;;;;;;;;;;18.10;99.90;;;;;;5097004;28;19969;-78
2020/12/29 13:09:31;;;;;;;;;;;18.10;99.90;;;;;;5115119;28;19908;-80
2020/12/29 13:11:58;;;;;;;;;;;18.10;99.90;;;;;;5116070;27;19951;-79
2020/12/29 13:14:24;;;;;;;;;;;18.10;99.90;;;;;;5117048;27;20003;-80
2020/12/29 13:16:51;;;;;;;;;;;18.10;99.90;;;;;;5135730;27;19914;-79
2020/12/29 13:19:17;;;;;;;;;;;18.10;99.90;;;;;;5135639;27;19930;-79
2020/12/29 13:21:48;;;;;;;;;;;18.00;99.90;;;;;;5126844;27;20374;-78
2020/12/29 13:24:14;;;;;;;;;;;18.00;99.90;;;;;;5115207;27;20350;-78
2020/12/29 13:26:41;;;;;;;;;;;18.00;99.90;;;;;;5126986;27;20013;-79
2020/12/29 13:29:08;;;;;;;;;;;18.00;99.90;;;;;;5135301;27;19915;-78
2020/12/29 13:31:34;;;;;;;;;;;17.90;99.90;;;;;;5124108;27;19915;-78
2020/12/29 13:34:01;;;;;;;;;;;17.90;99.90;;;;;;5119679;27;20044;-79
2020/12/29 13:36:28;;;;;;;;;;;17.80;99.90;;;;;;5133395;27;19919;-78
2020/12/29 13:38:54;;;;;;;;;;;17.80;99.90;;;;;;5132511;27;19919;-79
2020/12/29 13:41:21;;;;;;;;;;;17.80;99.90;;;;;;5114366;28;19915;-79
2020/12/29 13:43:48;;;;;;;;;;;17.80;99.90;;;;;;5114076;28;19922;-79
2020/12/29 13:46:14;;;;;;;;;;;17.70;99.90;;;;;;5122559;27;19947;-78
2020/12/29 13:48:42;;;;;;;;;;;17.70;99.90;;;;;;5116286;27;19908;-80
2020/12/29 13:51:08;;;;;;;;;;;17.80;99.90;;;;;;5135170;27;20309;-78
2020/12/29 13:53:35;;;;;;;;;;;17.80;99.90;;;;;;5133201;27;20002;-80
2020/12/29 13:56:02;;;;;;;;;;;17.70;99.90;;;;;;5115697;27;19970;-78
2020/12/29 13:58:28;;;;;;;;;;;17.70;99.90;;;;;;5114539;28;19908;-80
2020/12/29 14:00:55;;;;;;;;;;;17.70;99.90;;;;;;5114450;28;19927;-79
2020/12/29 14:03:21;;;;;;;;;;;17.80;99.90;;;;;;5115270;27;20285;-78
2020/12/29 14:05:48;;;;;;;;;;;17.80;99.90;;;;;;5130879;27;19919;-80
2020/12/29 14:08:17;;;;;;;;;;;17.80;99.90;;;;;;5134891;27;20318;-80
2020/12/29 14:10:44;;;;;;;;;;;17.80;99.90;;;;;;5134721;27;19912;-78
2020/12/29 14:13:10;;;;;;;;;;;17.80;99.90;;;;;;5130852;27;19912;-79
2020/12/29 14:15:37;;;;;;;;;;;17.70;99.90;;;;;;5132391;27;19998;-78
2020/12/29 14:18:04;;;;;;;;;;;17.70;99.90;;;;;;5114058;28;19911;-79
2020/12/29 14:20:30;;;;;;;;;;;17.80;99.90;;;;;;5131024;27;19964;-80
2020/12/29 14:22:57;;;;;;;;;;;17.80;99.90;;;;;;5134566;27;20273;-81